EDT,Max TemperatureF,Mean TemperatureF,Min TemperatureF,Max Dew PointF,MeanDew PointF,Min DewpointF,Max Humidity, Mean Humidity, Min Humidity, Max Sea Level PressureIn, Mean Sea Level PressureIn, Min Sea Level PressureIn, Max VisibilityMiles, Mean VisibilityMiles, Min VisibilityMiles, Max Wind SpeedMPH, Mean Wind SpeedMPH, Max Gust SpeedMPH,PrecipitationIn, CloudCover, Events, WindDirDegrees
2013-4-1,53,48,46,46,45,45,93,84,72,29.72,29.70,29.65,10,7,2,22,13,,0.00,2,,241
2013-4-2,,,,,,,,,,,,,,,,,,,,,,
2013-4-3,44,38,35,18,17,16,48,41,31,30.10,30.08,30.06,10,10,10,21,19,29,0.00,0,,307
2013-4-4,42,40,37,30,25,19,65,52,45,30.37,30.29,30.21,10,10,10,17,13,,0.00,0,,253
2013-4-5,57,46,41,45,36,27,93,68,31,29.90,29.79,29.69,10,10,10,12,4,,0.00,3,,300
2013-4-6,44,40,37,19,11,9,39,29,23,30.28,30.26,30.24,10,10,10,12,9,,0.00,0,,304
2013-4-7,48,46,44,43,39,32,82,73,54,30.31,30.23,30.13,10,10,10,20,15,,0.00,0,,191
2013-4-8,,,,,,,,,,,,,,,,,,,,,,
2013-4-9,68,56,55,54,51,50,82,76,60,29.94,29.94,29.93,10,10,10,15,11,23,0.00,0,,240
2013-4-10,55,54,51,46,46,46,82,77,72,29.94,29.94,29.94,10,10,10,8,7,,0.00,0,,165
2013-4-11,55,52,48,52,48,43,100,90,82,30.01,29.97,29.94,10,10,10,15,4,,0.00,7,,130
2013-4-12,42,42,41,39,39,37,93,90,81,29.99,29.87,29.77,10,4,2,23,17,32,0.00,8,Rain,97
2013-4-13,,,,,,,,,,,,,,,,,,,,,,
2013-4-14,53,53,53,36,32,28,51,45,38,30.10,30.06,30.03,10,10,10,20,17,,0.00,3,,315
2013-4-15,48,47,46,39,36,32,71,63,54,30.40,30.38,30.35,10,10,10,12,5,,0.00,2,,152
2013-4-16,,,,,,,,,,,,,,,,,,,,,,
2013-4-17,,,,,,,,,,,,,,,,,,,,,,
2013-4-18,53,52,50,43,39,36,76,60,51,30.40,30.36,30.31,10,10,10,15,12,,0.00,5,,137
2013-4-19,59,57,55,57,56,55,100,95,94,30.03,29.98,29.90,10,5,1,16,13,,0.00,8,,214
2013-4-20,,,,,,,,,,,,,,,,,,,,,,
2013-4-21,48,44,39,23,22,21,49,42,34,30.57,30.55,30.53,10,10,10,12,9,18,0.00,0,,352
2013-4-22,,,,,,,,,,,,,,,,,,,,,,
2013-4-23,,,,,,,,,,,,,,,,,,,,,,
2013-4-24,55,50,46,46,45,43,87,81,67,30.03,29.99,29.93,10,10,10,16,12,21,0.00,1,,266
2013-4-25,55,50,50,39,37,34,66,56,44,30.17,30.13,30.11,10,10,10,12,12,,0.00,1,,330
2013-4-26,57,55,55,45,44,43,63,63,63,30.37,30.37,30.36,10,10,10,7,7,,0.00,0,,205
2013-4-27,62,52,42,46,43,41,100,80,52,30.41,30.37,30.34,10,6,0,12,6,,0.00,3,Fog,182
2013-4-28,57,54,50,46,41,36,87,61,44,30.36,30.32,30.29,10,10,10,12,6,,0.00,1,,179
2013-4-29,,,,,,,,,,,,,,,,,,,,,,
2013-4-30,59,58,55,39,32,27,51,38,31,30.33,30.33,30.32,10,10,10,12,7,,0.00,0,,120